sensor_id;sensor_type;location;lat;lon;timestamp;P1;durP1;ratioP1;P2;durP2;ratioP2
74935;SDS011;63501;55.570;37.488;2023-05-24T00:00:31;6.88;;;4.97;;
74935;SDS011;63501;55.570;37.488;2023-05-24T00:03:00;6.60;;;4.82;;
74935;SDS011;63501;55.570;37.488;2023-05-24T00:05:31;8.75;;;4.78;;
74935;SDS011;63501;55.570;37.488;2023-05-24T00:08:02;7.80;;;4.88;;
74935;SDS011;63501;55.570;37.488;2023-05-24T00:10:31;8.35;;;4.60;;
74935;SDS011;63501;55.570;37.488;2023-05-24T00:12:58;10.48;;;4.82;;
74935;SDS011;63501;55.570;37.488;2023-05-24T00:15:25;7.28;;;4.40;;
74935;SDS011;63501;55.570;37.488;2023-05-24T00:17:52;6.32;;;3.97;;
74935;SDS011;63501;55.570;37.488;2023-05-24T00:20:20;6.05;;;3.97;;
74935;SDS011;63501;55.570;37.488;2023-05-24T00:22:49;9.40;;;3.97;;
74935;SDS011;63501;55.570;37.488;2023-05-24T00:25:17;5.90;;;3.75;;
74935;SDS011;63501;55.570;37.488;2023-05-24T00:27:44;7.32;;;3.90;;
74935;SDS011;63501;55.570;37.488;2023-05-24T00:30:12;6.75;;;4.05;;
74935;SDS011;63501;55.570;37.488;2023-05-24T00:32:40;8.43;;;4.38;;
74935;SDS011;63501;55.570;37.488;2023-05-24T00:35:07;6.82;;;4.18;;
74935;SDS011;63501;55.570;37.488;2023-05-24T00:37:35;6.72;;;3.95;;
74935;SDS011;63501;55.570;37.488;2023-05-24T00:40:08;6.95;;;4.20;;
74935;SDS011;63501;55.570;37.488;2023-05-24T00:42:37;5.45;;;3.55;;
74935;SDS011;63501;55.570;37.488;2023-05-24T00:45:05;6.90;;;4.47;;
74935;SDS011;63501;55.570;37.488;2023-05-24T00:47:33;8.07;;;3.90;;
74935;SDS011;63501;55.570;37.488;2023-05-24T00:50:01;7.25;;;3.55;;
74935;SDS011;63501;55.570;37.488;2023-05-24T00:52:30;8.23;;;4.15;;
74935;SDS011;63501;55.570;37.488;2023-05-24T00:54:57;5.28;;;3.65;;
74935;SDS011;63501;55.570;37.488;2023-05-24T00:57:26;7.80;;;4.07;;
74935;SDS011;63501;55.570;37.488;2023-05-24T00:59:53;6.32;;;3.65;;
74935;SDS011;63501;55.570;37.488;2023-05-24T01:02:23;5.95;;;3.58;;
74935;SDS011;63501;55.570;37.488;2023-05-24T01:04:52;6.65;;;3.35;;
74935;SDS011;63501;55.570;37.488;2023-05-24T01:07:21;5.97;;;3.47;;
74935;SDS011;63501;55.570;37.488;2023-05-24T01:09:57;4.47;;;3.17;;
74935;SDS011;63501;55.570;37.488;2023-05-24T01:12:35;8.27;;;3.72;;
74935;SDS011;63501;55.570;37.488;2023-05-24T01:15:21;8.85;;;4.18;;
74935;SDS011;63501;55.570;37.488;2023-05-24T01:17:52;6.78;;;3.60;;
74935;SDS011;63501;55.570;37.488;2023-05-24T01:20:27;7.35;;;3.65;;
74935;SDS011;63501;55.570;37.488;2023-05-24T01:28:48;5.82;;;3.70;;
74935;SDS011;63501;55.570;37.488;2023-05-24T01:31:16;5.75;;;3.85;;
74935;SDS011;63501;55.570;37.488;2023-05-24T01:33:45;6.50;;;3.97;;
74935;SDS011;63501;55.570;37.488;2023-05-24T01:36:12;4.88;;;3.13;;
74935;SDS011;63501;55.570;37.488;2023-05-24T01:38:39;5.55;;;3.53;;
74935;SDS011;63501;55.570;37.488;2023-05-24T01:43:40;7.03;;;3.50;;
74935;SDS011;63501;55.570;37.488;2023-05-24T01:46:17;3.85;;;3.05;;
74935;SDS011;63501;55.570;37.488;2023-05-24T01:48:53;7.82;;;3.67;;
74935;SDS011;63501;55.570;37.488;2023-05-24T01:51:29;5.95;;;3.78;;
74935;SDS011;63501;55.570;37.488;2023-05-24T01:54:17;6.85;;;4.07;;
74935;SDS011;63501;55.570;37.488;2023-05-24T01:56:51;5.07;;;3.25;;
74935;SDS011;63501;55.570;37.488;2023-05-24T01:59:20;5.43;;;2.97;;
74935;SDS011;63501;55.570;37.488;2023-05-24T02:01:51;7.65;;;3.78;;
74935;SDS011;63501;55.570;37.488;2023-05-24T02:04:18;7.57;;;3.92;;
74935;SDS011;63501;55.570;37.488;2023-05-24T02:06:46;6.25;;;3.92;;
74935;SDS011;63501;55.570;37.488;2023-05-24T02:09:13;9.77;;;4.32;;
74935;SDS011;63501;55.570;37.488;2023-05-24T02:11:40;9.60;;;4.60;;
74935;SDS011;63501;55.570;37.488;2023-05-24T02:14:08;8.32;;;4.38;;
74935;SDS011;63501;55.570;37.488;2023-05-24T02:16:35;8.77;;;4.40;;
74935;SDS011;63501;55.570;37.488;2023-05-24T02:19:11;6.13;;;4.15;;
74935;SDS011;63501;55.570;37.488;2023-05-24T02:21:38;8.02;;;4.93;;
74935;SDS011;63501;55.570;37.488;2023-05-24T02:24:12;7.80;;;4.35;;
74935;SDS011;63501;55.570;37.488;2023-05-24T02:26:42;8.68;;;4.28;;
74935;SDS011;63501;55.570;37.488;2023-05-24T02:29:10;7.68;;;4.38;;
74935;SDS011;63501;55.570;37.488;2023-05-24T02:31:39;6.97;;;4.32;;
74935;SDS011;63501;55.570;37.488;2023-05-24T02:34:08;10.65;;;5.10;;
74935;SDS011;63501;55.570;37.488;2023-05-24T02:36:36;8.00;;;3.97;;
74935;SDS011;63501;55.570;37.488;2023-05-24T02:39:03;10.23;;;4.57;;
74935;SDS011;63501;55.570;37.488;2023-05-24T02:41:32;10.30;;;4.57;;
74935;SDS011;63501;55.570;37.488;2023-05-24T02:44:00;8.05;;;4.68;;
74935;SDS011;63501;55.570;37.488;2023-05-24T02:46:27;8.70;;;4.45;;
74935;SDS011;63501;55.570;37.488;2023-05-24T02:48:54;8.95;;;4.78;;
74935;SDS011;63501;55.570;37.488;2023-05-24T02:51:23;7.40;;;4.47;;
74935;SDS011;63501;55.570;37.488;2023-05-24T02:53:50;10.38;;;5.00;;
74935;SDS011;63501;55.570;37.488;2023-05-24T02:56:19;10.40;;;4.90;;
74935;SDS011;63501;55.570;37.488;2023-05-24T02:58:51;7.97;;;5.20;;
74935;SDS011;63501;55.570;37.488;2023-05-24T03:01:18;11.23;;;4.40;;
74935;SDS011;63501;55.570;37.488;2023-05-24T03:04:02;6.57;;;5.13;;
74935;SDS011;63501;55.570;37.488;2023-05-24T03:06:31;8.38;;;4.70;;
74935;SDS011;63501;55.570;37.488;2023-05-24T03:09:04;9.50;;;4.60;;
74935;SDS011;63501;55.570;37.488;2023-05-24T03:11:33;8.13;;;4.75;;
74935;SDS011;63501;55.570;37.488;2023-05-24T03:14:02;8.35;;;5.07;;
74935;SDS011;63501;55.570;37.488;2023-05-24T03:16:31;7.93;;;5.05;;
74935;SDS011;63501;55.570;37.488;2023-05-24T03:18:59;8.48;;;4.47;;
74935;SDS011;63501;55.570;37.488;2023-05-24T03:21:28;9.48;;;4.70;;
74935;SDS011;63501;55.570;37.488;2023-05-24T03:24:01;8.75;;;5.13;;
74935;SDS011;63501;55.570;37.488;2023-05-24T03:26:29;11.77;;;5.68;;
74935;SDS011;63501;55.570;37.488;2023-05-24T03:28:56;7.55;;;4.60;;
74935;SDS011;63501;55.570;37.488;2023-05-24T03:31:23;10.60;;;5.03;;
74935;SDS011;63501;55.570;37.488;2023-05-24T03:33:52;6.90;;;4.75;;
74935;SDS011;63501;55.570;37.488;2023-05-24T03:36:23;9.13;;;4.70;;
74935;SDS011;63501;55.570;37.488;2023-05-24T03:38:52;7.38;;;5.03;;
74935;SDS011;63501;55.570;37.488;2023-05-24T03:41:21;9.55;;;4.70;;
74935;SDS011;63501;55.570;37.488;2023-05-24T03:43:48;8.07;;;4.68;;
74935;SDS011;63501;55.570;37.488;2023-05-24T03:46:15;7.32;;;4.07;;
74935;SDS011;63501;55.570;37.488;2023-05-24T03:48:42;7.57;;;4.20;;
74935;SDS011;63501;55.570;37.488;2023-05-24T03:51:09;7.82;;;4.40;;
74935;SDS011;63501;55.570;37.488;2023-05-24T03:53:41;8.68;;;4.30;;
74935;SDS011;63501;55.570;37.488;2023-05-24T03:56:11;7.45;;;4.47;;
74935;SDS011;63501;55.570;37.488;2023-05-24T03:58:39;12.13;;;4.97;;
74935;SDS011;63501;55.570;37.488;2023-05-24T04:01:07;10.00;;;4.53;;
74935;SDS011;63501;55.570;37.488;2023-05-24T04:03:36;5.93;;;3.90;;
74935;SDS011;63501;55.570;37.488;2023-05-24T04:06:03;8.00;;;4.40;;
74935;SDS011;63501;55.570;37.488;2023-05-24T04:08:30;13.45;;;4.70;;
74935;SDS011;63501;55.570;37.488;2023-05-24T04:11:03;7.90;;;4.32;;
74935;SDS011;63501;55.570;37.488;2023-05-24T04:13:30;5.97;;;4.32;;
74935;SDS011;63501;55.570;37.488;2023-05-24T04:16:00;7.35;;;3.95;;
74935;SDS011;63501;55.570;37.488;2023-05-24T04:18:29;11.75;;;4.63;;
74935;SDS011;63501;55.570;37.488;2023-05-24T04:20:57;8.55;;;4.13;;
74935;SDS011;63501;55.570;37.488;2023-05-24T04:23:25;10.15;;;4.65;;
74935;SDS011;63501;55.570;37.488;2023-05-24T04:25:52;7.80;;;5.10;;
74935;SDS011;63501;55.570;37.488;2023-05-24T04:28:20;5.68;;;4.07;;
74935;SDS011;63501;55.570;37.488;2023-05-24T04:30:49;19.17;;;5.00;;
74935;SDS011;63501;55.570;37.488;2023-05-24T04:33:19;9.75;;;4.22;;
74935;SDS011;63501;55.570;37.488;2023-05-24T04:35:46;6.78;;;4.18;;
74935;SDS011;63501;55.570;37.488;2023-05-24T04:38:14;7.93;;;4.25;;
74935;SDS011;63501;55.570;37.488;2023-05-24T04:40:41;12.63;;;5.05;;
74935;SDS011;63501;55.570;37.488;2023-05-24T04:43:09;7.93;;;4.32;;
74935;SDS011;63501;55.570;37.488;2023-05-24T04:45:36;9.50;;;4.45;;
74935;SDS011;63501;55.570;37.488;2023-05-24T04:48:04;7.60;;;4.18;;
74935;SDS011;63501;55.570;37.488;2023-05-24T04:53:02;7.47;;;4.50;;
74935;SDS011;63501;55.570;37.488;2023-05-24T04:55:29;8.13;;;4.30;;
74935;SDS011;63501;55.570;37.488;2023-05-24T04:57:58;6.88;;;4.20;;
74935;SDS011;63501;55.570;37.488;2023-05-24T05:00:26;6.82;;;4.00;;
74935;SDS011;63501;55.570;37.488;2023-05-24T05:02:53;9.40;;;4.60;;
74935;SDS011;63501;55.570;37.488;2023-05-24T05:05:20;5.93;;;4.00;;
74935;SDS011;63501;55.570;37.488;2023-05-24T05:07:50;6.00;;;4.10;;
74935;SDS011;63501;55.570;37.488;2023-05-24T05:10:17;7.00;;;4.30;;
74935;SDS011;63501;55.570;37.488;2023-05-24T05:12:45;9.52;;;4.57;;
74935;SDS011;63501;55.570;37.488;2023-05-24T05:15:12;9.52;;;4.75;;
74935;SDS011;63501;55.570;37.488;2023-05-24T05:17:39;7.20;;;4.25;;
74935;SDS011;63501;55.570;37.488;2023-05-24T05:20:07;7.70;;;4.80;;
74935;SDS011;63501;55.570;37.488;2023-05-24T05:22:34;8.63;;;4.78;;
74935;SDS011;63501;55.570;37.488;2023-05-24T05:25:03;7.78;;;4.30;;
74935;SDS011;63501;55.570;37.488;2023-05-24T05:27:31;8.57;;;4.30;;
74935;SDS011;63501;55.570;37.488;2023-05-24T05:29:58;8.35;;;4.57;;
74935;SDS011;63501;55.570;37.488;2023-05-24T05:32:25;7.68;;;4.95;;
74935;SDS011;63501;55.570;37.488;2023-05-24T05:34:52;10.35;;;4.45;;
74935;SDS011;63501;55.570;37.488;2023-05-24T05:37:19;12.13;;;4.90;;
74935;SDS011;63501;55.570;37.488;2023-05-24T05:39:47;8.80;;;4.70;;
74935;SDS011;63501;55.570;37.488;2023-05-24T05:42:18;9.48;;;4.63;;
74935;SDS011;63501;55.570;37.488;2023-05-24T05:44:46;9.13;;;4.90;;
74935;SDS011;63501;55.570;37.488;2023-05-24T05:47:13;8.68;;;5.32;;
74935;SDS011;63501;55.570;37.488;2023-05-24T05:49:42;7.18;;;4.35;;
74935;SDS011;63501;55.570;37.488;2023-05-24T05:52:09;8.45;;;5.10;;
74935;SDS011;63501;55.570;37.488;2023-05-24T05:54:36;10.05;;;5.18;;
74935;SDS011;63501;55.570;37.488;2023-05-24T05:57:03;8.27;;;5.15;;
74935;SDS011;63501;55.570;37.488;2023-05-24T05:59:33;8.73;;;5.65;;
74935;SDS011;63501;55.570;37.488;2023-05-24T06:02:01;8.15;;;5.20;;
74935;SDS011;63501;55.570;37.488;2023-05-24T06:04:28;9.05;;;5.82;;
74935;SDS011;63501;55.570;37.488;2023-05-24T06:06:55;6.72;;;4.93;;
74935;SDS011;63501;55.570;37.488;2023-05-24T06:09:24;11.75;;;5.38;;
74935;SDS011;63501;55.570;37.488;2023-05-24T06:11:53;6.72;;;4.93;;
74935;SDS011;63501;55.570;37.488;2023-05-24T06:14:21;9.75;;;4.80;;
74935;SDS011;63501;55.570;37.488;2023-05-24T06:16:51;10.13;;;5.07;;
74935;SDS011;63501;55.570;37.488;2023-05-24T06:19:18;6.72;;;4.80;;
74935;SDS011;63501;55.570;37.488;2023-05-24T06:21:46;9.88;;;5.05;;
74935;SDS011;63501;55.570;37.488;2023-05-24T06:24:16;12.10;;;5.03;;
74935;SDS011;63501;55.570;37.488;2023-05-24T06:26:44;7.00;;;4.60;;
74935;SDS011;63501;55.570;37.488;2023-05-24T06:31:39;7.82;;;4.10;;
74935;SDS011;63501;55.570;37.488;2023-05-24T06:34:11;7.65;;;4.55;;
74935;SDS011;63501;55.570;37.488;2023-05-24T06:36:41;8.85;;;5.25;;
74935;SDS011;63501;55.570;37.488;2023-05-24T06:39:09;8.95;;;4.55;;
74935;SDS011;63501;55.570;37.488;2023-05-24T06:41:38;7.35;;;4.90;;
74935;SDS011;63501;55.570;37.488;2023-05-24T06:44:06;10.23;;;5.15;;
74935;SDS011;63501;55.570;37.488;2023-05-24T06:46:33;7.40;;;4.30;;
74935;SDS011;63501;55.570;37.488;2023-05-24T06:49:01;10.32;;;4.28;;
74935;SDS011;63501;55.570;37.488;2023-05-24T06:51:30;9.88;;;5.45;;
74935;SDS011;63501;55.570;37.488;2023-05-24T06:53:58;12.13;;;4.80;;
74935;SDS011;63501;55.570;37.488;2023-05-24T06:56:26;9.50;;;4.60;;
74935;SDS011;63501;55.570;37.488;2023-05-24T06:58:54;6.63;;;4.57;;
74935;SDS011;63501;55.570;37.488;2023-05-24T07:01:21;7.50;;;4.03;;
74935;SDS011;63501;55.570;37.488;2023-05-24T07:03:49;6.95;;;3.35;;
74935;SDS011;63501;55.570;37.488;2023-05-24T07:06:19;8.88;;;3.65;;
74935;SDS011;63501;55.570;37.488;2023-05-24T07:08:50;8.10;;;4.00;;
74935;SDS011;63501;55.570;37.488;2023-05-24T07:11:17;10.90;;;4.15;;
74935;SDS011;63501;55.570;37.488;2023-05-24T07:13:46;9.73;;;4.00;;
74935;SDS011;63501;55.570;37.488;2023-05-24T07:16:13;8.35;;;3.92;;
74935;SDS011;63501;55.570;37.488;2023-05-24T07:18:40;9.07;;;4.40;;
74935;SDS011;63501;55.570;37.488;2023-05-24T07:21:08;6.30;;;3.65;;
74935;SDS011;63501;55.570;37.488;2023-05-24T07:23:35;6.55;;;4.38;;
74935;SDS011;63501;55.570;37.488;2023-05-24T07:26:04;10.60;;;4.60;;
74935;SDS011;63501;55.570;37.488;2023-05-24T07:28:34;6.47;;;3.97;;
74935;SDS011;63501;55.570;37.488;2023-05-24T07:31:04;15.68;;;4.78;;
74935;SDS011;63501;55.570;37.488;2023-05-24T07:33:34;11.13;;;4.95;;
74935;SDS011;63501;55.570;37.488;2023-05-24T07:36:02;9.15;;;4.40;;
74935;SDS011;63501;55.570;37.488;2023-05-24T07:38:29;8.18;;;4.63;;
74935;SDS011;63501;55.570;37.488;2023-05-24T07:40:58;10.18;;;4.80;;
74935;SDS011;63501;55.570;37.488;2023-05-24T07:43:36;7.22;;;4.68;;
74935;SDS011;63501;55.570;37.488;2023-05-24T07:46:05;7.30;;;4.32;;
74935;SDS011;63501;55.570;37.488;2023-05-24T07:48:34;9.23;;;4.53;;
74935;SDS011;63501;55.570;37.488;2023-05-24T07:51:01;8.38;;;4.50;;
74935;SDS011;63501;55.570;37.488;2023-05-24T07:53:29;9.80;;;5.10;;
74935;SDS011;63501;55.570;37.488;2023-05-24T07:55:56;8.88;;;4.63;;
74935;SDS011;63501;55.570;37.488;2023-05-24T07:58:23;8.40;;;4.65;;
74935;SDS011;63501;55.570;37.488;2023-05-24T08:00:52;12.30;;;4.82;;
74935;SDS011;63501;55.570;37.488;2023-05-24T08:03:19;10.13;;;4.80;;
74935;SDS011;63501;55.570;37.488;2023-05-24T08:05:48;8.77;;;4.95;;
74935;SDS011;63501;55.570;37.488;2023-05-24T08:08:16;9.10;;;4.93;;
74935;SDS011;63501;55.570;37.488;2023-05-24T08:13:11;8.40;;;4.65;;
74935;SDS011;63501;55.570;37.488;2023-05-24T08:15:39;10.18;;;5.30;;
74935;SDS011;63501;55.570;37.488;2023-05-24T08:18:07;11.98;;;8.07;;
74935;SDS011;63501;55.570;37.488;2023-05-24T08:20:35;9.45;;;5.68;;
74935;SDS011;63501;55.570;37.488;2023-05-24T08:23:03;8.88;;;4.90;;
74935;SDS011;63501;55.570;37.488;2023-05-24T08:25:30;14.30;;;5.45;;
74935;SDS011;63501;55.570;37.488;2023-05-24T08:30:24;10.88;;;4.90;;
74935;SDS011;63501;55.570;37.488;2023-05-24T08:32:51;10.32;;;5.13;;
74935;SDS011;63501;55.570;37.488;2023-05-24T08:35:21;7.82;;;5.15;;
74935;SDS011;63501;55.570;37.488;2023-05-24T08:37:48;7.22;;;4.40;;
74935;SDS011;63501;55.570;37.488;2023-05-24T08:40:16;7.18;;;4.60;;
74935;SDS011;63501;55.570;37.488;2023-05-24T08:42:44;9.13;;;4.57;;
74935;SDS011;63501;55.570;37.488;2023-05-24T08:45:12;8.02;;;4.60;;
74935;SDS011;63501;55.570;37.488;2023-05-24T08:47:40;9.80;;;4.78;;
74935;SDS011;63501;55.570;37.488;2023-05-24T08:50:08;7.93;;;4.70;;
74935;SDS011;63501;55.570;37.488;2023-05-24T08:52:38;8.43;;;5.28;;
74935;SDS011;63501;55.570;37.488;2023-05-24T08:55:09;11.38;;;4.95;;
74935;SDS011;63501;55.570;37.488;2023-05-24T08:57:37;7.95;;;4.97;;
74935;SDS011;63501;55.570;37.488;2023-05-24T09:00:06;10.75;;;5.70;;
74935;SDS011;63501;55.570;37.488;2023-05-24T09:02:36;12.90;;;5.15;;
74935;SDS011;63501;55.570;37.488;2023-05-24T09:05:04;9.43;;;5.18;;
74935;SDS011;63501;55.570;37.488;2023-05-24T09:07:35;11.30;;;4.72;;
74935;SDS011;63501;55.570;37.488;2023-05-24T09:10:06;8.65;;;4.70;;
74935;SDS011;63501;55.570;37.488;2023-05-24T09:12:35;8.52;;;4.45;;
74935;SDS011;63501;55.570;37.488;2023-05-24T09:15:05;10.95;;;4.57;;
74935;SDS011;63501;55.570;37.488;2023-05-24T09:17:34;9.60;;;4.30;;
74935;SDS011;63501;55.570;37.488;2023-05-24T09:20:02;10.32;;;4.43;;
74935;SDS011;63501;55.570;37.488;2023-05-24T09:22:34;8.23;;;5.35;;
74935;SDS011;63501;55.570;37.488;2023-05-24T09:25:04;7.38;;;4.68;;
74935;SDS011;63501;55.570;37.488;2023-05-24T09:27:34;9.70;;;4.70;;
74935;SDS011;63501;55.570;37.488;2023-05-24T09:30:05;12.13;;;4.93;;
74935;SDS011;63501;55.570;37.488;2023-05-24T09:32:39;10.20;;;4.95;;
74935;SDS011;63501;55.570;37.488;2023-05-24T09:37:36;10.73;;;4.85;;
74935;SDS011;63501;55.570;37.488;2023-05-24T09:40:06;13.65;;;4.40;;
74935;SDS011;63501;55.570;37.488;2023-05-24T09:42:45;8.55;;;4.40;;
74935;SDS011;63501;55.570;37.488;2023-05-24T09:45:15;10.00;;;4.72;;
74935;SDS011;63501;55.570;37.488;2023-05-24T09:47:44;8.77;;;4.90;;
74935;SDS011;63501;55.570;37.488;2023-05-24T09:50:11;9.52;;;4.97;;
74935;SDS011;63501;55.570;37.488;2023-05-24T09:52:40;9.32;;;4.50;;
74935;SDS011;63501;55.570;37.488;2023-05-24T09:55:13;8.90;;;5.03;;
74935;SDS011;63501;55.570;37.488;2023-05-24T09:57:42;8.85;;;4.82;;
74935;SDS011;63501;55.570;37.488;2023-05-24T10:00:10;9.15;;;5.00;;
74935;SDS011;63501;55.570;37.488;2023-05-24T10:02:41;10.65;;;5.55;;
74935;SDS011;63501;55.570;37.488;2023-05-24T10:07:38;10.82;;;5.15;;
74935;SDS011;63501;55.570;37.488;2023-05-24T10:10:08;5.85;;;4.70;;
74935;SDS011;63501;55.570;37.488;2023-05-24T10:12:40;12.23;;;5.00;;
74935;SDS011;63501;55.570;37.488;2023-05-24T10:15:11;11.30;;;5.28;;
74935;SDS011;63501;55.570;37.488;2023-05-24T10:17:39;16.70;;;9.07;;
74935;SDS011;63501;55.570;37.488;2023-05-24T10:20:06;13.63;;;7.00;;
74935;SDS011;63501;55.570;37.488;2023-05-24T10:22:38;10.43;;;5.63;;
74935;SDS011;63501;55.570;37.488;2023-05-24T10:27:42;9.70;;;4.82;;
74935;SDS011;63501;55.570;37.488;2023-05-24T10:30:13;10.50;;;5.07;;
74935;SDS011;63501;55.570;37.488;2023-05-24T10:32:46;8.68;;;4.90;;
74935;SDS011;63501;55.570;37.488;2023-05-24T10:35:16;7.90;;;4.88;;
74935;SDS011;63501;55.570;37.488;2023-05-24T10:37:44;9.77;;;5.30;;
74935;SDS011;63501;55.570;37.488;2023-05-24T10:40:15;12.88;;;5.38;;
74935;SDS011;63501;55.570;37.488;2023-05-24T10:42:47;7.72;;;5.03;;
74935;SDS011;63501;55.570;37.488;2023-05-24T10:45:32;8.48;;;4.97;;
74935;SDS011;63501;55.570;37.488;2023-05-24T10:48:16;13.05;;;6.45;;
74935;SDS011;63501;55.570;37.488;2023-05-24T10:50:59;10.70;;;5.88;;
74935;SDS011;63501;55.570;37.488;2023-05-24T10:53:27;12.85;;;6.93;;
74935;SDS011;63501;55.570;37.488;2023-05-24T10:58:27;12.60;;;6.13;;
74935;SDS011;63501;55.570;37.488;2023-05-24T11:01:12;10.98;;;6.38;;
74935;SDS011;63501;55.570;37.488;2023-05-24T11:03:39;10.18;;;6.70;;
74935;SDS011;63501;55.570;37.488;2023-05-24T11:06:07;11.65;;;6.35;;
74935;SDS011;63501;55.570;37.488;2023-05-24T11:08:39;12.27;;;6.30;;
74935;SDS011;63501;55.570;37.488;2023-05-24T11:11:09;11.65;;;6.38;;
74935;SDS011;63501;55.570;37.488;2023-05-24T11:13:41;9.88;;;5.70;;
74935;SDS011;63501;55.570;37.488;2023-05-24T11:16:11;12.10;;;5.97;;
74935;SDS011;63501;55.570;37.488;2023-05-24T11:19:00;10.00;;;6.18;;
74935;SDS011;63501;55.570;37.488;2023-05-24T11:21:37;10.68;;;6.40;;
74935;SDS011;63501;55.570;37.488;2023-05-24T11:24:05;12.10;;;7.40;;
74935;SDS011;63501;55.570;37.488;2023-05-24T11:26:33;12.90;;;7.00;;
74935;SDS011;63501;55.570;37.488;2023-05-24T11:29:02;12.85;;;7.45;;
74935;SDS011;63501;55.570;37.488;2023-05-24T11:31:31;14.10;;;7.10;;
74935;SDS011;63501;55.570;37.488;2023-05-24T11:34:00;16.15;;;7.40;;
74935;SDS011;63501;55.570;37.488;2023-05-24T11:36:28;14.45;;;6.68;;
74935;SDS011;63501;55.570;37.488;2023-05-24T11:38:55;10.70;;;6.65;;
74935;SDS011;63501;55.570;37.488;2023-05-24T11:41:23;10.77;;;5.43;;
74935;SDS011;63501;55.570;37.488;2023-05-24T11:43:52;10.15;;;5.30;;
74935;SDS011;63501;55.570;37.488;2023-05-24T11:46:20;9.00;;;4.90;;
74935;SDS011;63501;55.570;37.488;2023-05-24T11:48:54;10.88;;;4.60;;
74935;SDS011;63501;55.570;37.488;2023-05-24T11:51:28;9.00;;;4.35;;
74935;SDS011;63501;55.570;37.488;2023-05-24T11:53:56;9.18;;;5.20;;
74935;SDS011;63501;55.570;37.488;2023-05-24T11:56:24;7.50;;;4.45;;
74935;SDS011;63501;55.570;37.488;2023-05-24T11:58:54;5.93;;;4.53;;
74935;SDS011;63501;55.570;37.488;2023-05-24T12:01:30;7.72;;;5.00;;
74935;SDS011;63501;55.570;37.488;2023-05-24T12:06:32;10.52;;;5.82;;
74935;SDS011;63501;55.570;37.488;2023-05-24T12:09:02;9.38;;;4.30;;
74935;SDS011;63501;55.570;37.488;2023-05-24T12:11:38;13.77;;;4.05;;
74935;SDS011;63501;55.570;37.488;2023-05-24T12:14:09;8.70;;;4.50;;
74935;SDS011;63501;55.570;37.488;2023-05-24T12:16:37;7.85;;;4.00;;
74935;SDS011;63501;55.570;37.488;2023-05-24T12:19:07;7.40;;;4.18;;
74935;SDS011;63501;55.570;37.488;2023-05-24T12:21:41;6.93;;;3.85;;
74935;SDS011;63501;55.570;37.488;2023-05-24T12:24:09;7.78;;;3.95;;
74935;SDS011;63501;55.570;37.488;2023-05-24T12:26:41;7.45;;;3.83;;
74935;SDS011;63501;55.570;37.488;2023-05-24T12:29:09;7.65;;;4.40;;
74935;SDS011;63501;55.570;37.488;2023-05-24T12:31:38;8.07;;;3.95;;
74935;SDS011;63501;55.570;37.488;2023-05-24T12:34:07;9.45;;;4.60;;
74935;SDS011;63501;55.570;37.488;2023-05-24T12:36:37;10.02;;;4.30;;
74935;SDS011;63501;55.570;37.488;2023-05-24T12:39:18;12.65;;;4.68;;
74935;SDS011;63501;55.570;37.488;2023-05-24T12:41:49;9.68;;;4.10;;
74935;SDS011;63501;55.570;37.488;2023-05-24T12:44:22;6.00;;;3.30;;
74935;SDS011;63501;55.570;37.488;2023-05-24T12:46:55;7.22;;;3.88;;
74935;SDS011;63501;55.570;37.488;2023-05-24T12:49:25;6.22;;;3.97;;
74935;SDS011;63501;55.570;37.488;2023-05-24T12:51:53;5.60;;;3.80;;
74935;SDS011;63501;55.570;37.488;2023-05-24T12:54:23;11.02;;;4.00;;
74935;SDS011;63501;55.570;37.488;2023-05-24T12:56:53;5.30;;;3.67;;
74935;SDS011;63501;55.570;37.488;2023-05-24T12:59:24;8.25;;;4.25;;
74935;SDS011;63501;55.570;37.488;2023-05-24T13:01:52;7.35;;;4.15;;
74935;SDS011;63501;55.570;37.488;2023-05-24T13:04:22;5.50;;;3.45;;
74935;SDS011;63501;55.570;37.488;2023-05-24T13:06:53;8.13;;;4.03;;
74935;SDS011;63501;55.570;37.488;2023-05-24T13:09:21;6.55;;;3.83;;
74935;SDS011;63501;55.570;37.488;2023-05-24T13:11:51;7.32;;;4.32;;
74935;SDS011;63501;55.570;37.488;2023-05-24T13:14:21;10.65;;;4.60;;
74935;SDS011;63501;55.570;37.488;2023-05-24T13:16:48;6.72;;;4.45;;
74935;SDS011;63501;55.570;37.488;2023-05-24T13:19:15;7.30;;;4.05;;
74935;SDS011;63501;55.570;37.488;2023-05-24T13:21:43;6.10;;;3.35;;
74935;SDS011;63501;55.570;37.488;2023-05-24T13:24:12;7.40;;;4.03;;
74935;SDS011;63501;55.570;37.488;2023-05-24T13:26:43;8.82;;;4.28;;
74935;SDS011;63501;55.570;37.488;2023-05-24T13:29:11;6.75;;;4.30;;
74935;SDS011;63501;55.570;37.488;2023-05-24T13:34:06;10.80;;;3.97;;
74935;SDS011;63501;55.570;37.488;2023-05-24T13:36:33;8.55;;;3.88;;
74935;SDS011;63501;55.570;37.488;2023-05-24T13:39:00;8.18;;;4.00;;
74935;SDS011;63501;55.570;37.488;2023-05-24T13:41:30;7.20;;;3.83;;
74935;SDS011;63501;55.570;37.488;2023-05-24T13:44:01;10.27;;;4.15;;
74935;SDS011;63501;55.570;37.488;2023-05-24T13:46:31;6.75;;;3.53;;
74935;SDS011;63501;55.570;37.488;2023-05-24T13:49:00;10.50;;;4.30;;
74935;SDS011;63501;55.570;37.488;2023-05-24T13:51:27;6.88;;;3.70;;
74935;SDS011;63501;55.570;37.488;2023-05-24T13:53:55;7.97;;;3.45;;
74935;SDS011;63501;55.570;37.488;2023-05-24T13:56:23;6.10;;;3.70;;
74935;SDS011;63501;55.570;37.488;2023-05-24T13:58:56;5.90;;;3.33;;
74935;SDS011;63501;55.570;37.488;2023-05-24T14:03:52;8.80;;;3.72;;
74935;SDS011;63501;55.570;37.488;2023-05-24T14:06:20;6.13;;;4.30;;
74935;SDS011;63501;55.570;37.488;2023-05-24T14:11:14;8.68;;;3.70;;
74935;SDS011;63501;55.570;37.488;2023-05-24T14:13:41;8.23;;;3.90;;
74935;SDS011;63501;55.570;37.488;2023-05-24T14:16:08;8.77;;;4.10;;
74935;SDS011;63501;55.570;37.488;2023-05-24T14:21:04;8.38;;;4.15;;
74935;SDS011;63501;55.570;37.488;2023-05-24T14:23:32;8.60;;;4.10;;
74935;SDS011;63501;55.570;37.488;2023-05-24T14:26:00;9.45;;;4.07;;
74935;SDS011;63501;55.570;37.488;2023-05-24T14:28:27;4.20;;;3.50;;
74935;SDS011;63501;55.570;37.488;2023-05-24T14:30:55;6.07;;;3.90;;
74935;SDS011;63501;55.570;37.488;2023-05-24T14:35:53;6.72;;;4.30;;
74935;SDS011;63501;55.570;37.488;2023-05-24T14:38:20;9.75;;;4.25;;
74935;SDS011;63501;55.570;37.488;2023-05-24T14:40:48;8.50;;;3.83;;
74935;SDS011;63501;55.570;37.488;2023-05-24T14:43:16;6.20;;;4.13;;
74935;SDS011;63501;55.570;37.488;2023-05-24T14:45:44;7.72;;;4.43;;
74935;SDS011;63501;55.570;37.488;2023-05-24T14:48:13;6.82;;;4.28;;
74935;SDS011;63501;55.570;37.488;2023-05-24T14:50:43;10.85;;;4.63;;
74935;SDS011;63501;55.570;37.488;2023-05-24T14:53:12;6.28;;;3.80;;
74935;SDS011;63501;55.570;37.488;2023-05-24T14:55:40;8.13;;;4.32;;
74935;SDS011;63501;55.570;37.488;2023-05-24T14:58:08;8.77;;;4.78;;
74935;SDS011;63501;55.570;37.488;2023-05-24T15:00:36;9.38;;;4.63;;
74935;SDS011;63501;55.570;37.488;2023-05-24T15:03:04;6.70;;;3.80;;
74935;SDS011;63501;55.570;37.488;2023-05-24T15:05:34;7.43;;;4.18;;
74935;SDS011;63501;55.570;37.488;2023-05-24T15:08:01;6.63;;;3.53;;
74935;SDS011;63501;55.570;37.488;2023-05-24T15:10:31;10.27;;;4.15;;
74935;SDS011;63501;55.570;37.488;2023-05-24T15:12:58;6.80;;;4.20;;
74935;SDS011;63501;55.570;37.488;2023-05-24T15:15:27;8.40;;;3.95;;
74935;SDS011;63501;55.570;37.488;2023-05-24T15:17:55;6.43;;;3.85;;
74935;SDS011;63501;55.570;37.488;2023-05-24T15:20:24;8.88;;;4.00;;
74935;SDS011;63501;55.570;37.488;2023-05-24T15:22:51;8.57;;;4.10;;
74935;SDS011;63501;55.570;37.488;2023-05-24T15:25:19;6.60;;;3.60;;